sensor_id;sensor_type;location;lat;lon;timestamp;P1;durP1;ratioP1;P2;durP2;ratioP2
36253;SDS011;22291;52.250;21.228;2022-11-25T00:01:22;72.30;;;24.57;;
36253;SDS011;22291;52.250;21.228;2022-11-25T00:03:53;75.37;;;22.48;;
36253;SDS011;22291;52.250;21.228;2022-11-25T00:06:23;78.87;;;25.60;;
36253;SDS011;22291;52.250;21.228;2022-11-25T00:08:57;71.75;;;23.00;;
36253;SDS011;22291;52.250;21.228;2022-11-25T00:11:33;71.37;;;22.55;;
36253;SDS011;22291;52.250;21.228;2022-11-25T00:14:01;70.40;;;22.48;;
36253;SDS011;22291;52.250;21.228;2022-11-25T00:16:29;76.47;;;22.82;;
36253;SDS011;22291;52.250;21.228;2022-11-25T00:18:58;70.15;;;21.33;;
36253;SDS011;22291;52.250;21.228;2022-11-25T00:21:27;74.85;;;23.38;;
36253;SDS011;22291;52.250;21.228;2022-11-25T00:23:58;66.90;;;21.60;;
36253;SDS011;22291;52.250;21.228;2022-11-25T00:26:29;76.62;;;22.90;;
36253;SDS011;22291;52.250;21.228;2022-11-25T00:29:00;65.75;;;21.73;;
36253;SDS011;22291;52.250;21.228;2022-11-25T00:31:32;75.55;;;20.92;;
36253;SDS011;22291;52.250;21.228;2022-11-25T00:34:01;77.87;;;22.65;;
36253;SDS011;22291;52.250;21.228;2022-11-25T00:36:33;74.37;;;23.25;;
36253;SDS011;22291;52.250;21.228;2022-11-25T00:39:05;69.70;;;22.45;;
36253;SDS011;22291;52.250;21.228;2022-11-25T00:41:36;70.28;;;22.48;;
36253;SDS011;22291;52.250;21.228;2022-11-25T00:44:25;76.72;;;22.98;;
36253;SDS011;22291;52.250;21.228;2022-11-25T00:49:42;61.53;;;21.35;;
36253;SDS011;22291;52.250;21.228;2022-11-25T00:52:13;68.60;;;21.02;;
36253;SDS011;22291;52.250;21.228;2022-11-25T00:54:48;67.85;;;21.55;;
36253;SDS011;22291;52.250;21.228;2022-11-25T00:57:15;70.87;;;20.90;;
36253;SDS011;22291;52.250;21.228;2022-11-25T00:59:46;69.85;;;20.48;;
36253;SDS011;22291;52.250;21.228;2022-11-25T01:02:13;64.87;;;20.92;;
36253;SDS011;22291;52.250;21.228;2022-11-25T01:04:48;63.28;;;21.17;;
36253;SDS011;22291;52.250;21.228;2022-11-25T01:07:14;45.60;;;12.80;;
36253;SDS011;22291;52.250;21.228;2022-11-25T01:09:43;69.58;;;19.80;;
36253;SDS011;22291;52.250;21.228;2022-11-25T01:12:16;63.02;;;19.42;;
36253;SDS011;22291;52.250;21.228;2022-11-25T01:14:42;65.50;;;20.50;;
36253;SDS011;22291;52.250;21.228;2022-11-25T01:17:13;64.63;;;21.13;;
36253;SDS011;22291;52.250;21.228;2022-11-25T01:19:40;44.25;;;13.60;;
36253;SDS011;22291;52.250;21.228;2022-11-25T01:22:10;62.90;;;18.75;;
36253;SDS011;22291;52.250;21.228;2022-11-25T01:24:37;59.85;;;19.57;;
36253;SDS011;22291;52.250;21.228;2022-11-25T01:27:03;61.73;;;19.35;;
36253;SDS011;22291;52.250;21.228;2022-11-25T01:29:30;64.27;;;21.48;;
36253;SDS011;22291;52.250;21.228;2022-11-25T01:31:58;65.05;;;20.37;;
36253;SDS011;22291;52.250;21.228;2022-11-25T01:34:26;58.48;;;19.45;;
36253;SDS011;22291;52.250;21.228;2022-11-25T01:36:57;57.85;;;20.77;;
36253;SDS011;22291;52.250;21.228;2022-11-25T01:39:23;63.20;;;19.98;;
36253;SDS011;22291;52.250;21.228;2022-11-25T01:41:51;64.32;;;20.20;;
36253;SDS011;22291;52.250;21.228;2022-11-25T01:44:18;68.78;;;19.48;;
36253;SDS011;22291;52.250;21.228;2022-11-25T01:49:57;57.17;;;18.60;;
36253;SDS011;22291;52.250;21.228;2022-11-25T01:52:30;61.10;;;19.80;;
36253;SDS011;22291;52.250;21.228;2022-11-25T01:57:43;58.25;;;18.20;;
36253;SDS011;22291;52.250;21.228;2022-11-25T02:00:15;62.33;;;19.00;;
36253;SDS011;22291;52.250;21.228;2022-11-25T02:02:42;57.35;;;18.05;;
36253;SDS011;22291;52.250;21.228;2022-11-25T02:05:13;65.45;;;19.17;;
36253;SDS011;22291;52.250;21.228;2022-11-25T02:07:45;56.73;;;16.42;;
36253;SDS011;22291;52.250;21.228;2022-11-25T02:10:15;55.50;;;16.65;;
36253;SDS011;22291;52.250;21.228;2022-11-25T02:12:55;60.38;;;18.40;;
36253;SDS011;22291;52.250;21.228;2022-11-25T02:15:24;63.23;;;20.65;;
36253;SDS011;22291;52.250;21.228;2022-11-25T02:17:54;60.35;;;17.75;;
36253;SDS011;22291;52.250;21.228;2022-11-25T02:20:22;59.10;;;18.32;;
36253;SDS011;22291;52.250;21.228;2022-11-25T02:25:42;58.55;;;18.65;;
36253;SDS011;22291;52.250;21.228;2022-11-25T02:30:42;65.45;;;19.25;;
36253;SDS011;22291;52.250;21.228;2022-11-25T02:33:12;59.27;;;18.37;;
36253;SDS011;22291;52.250;21.228;2022-11-25T02:35:51;68.22;;;20.48;;
36253;SDS011;22291;52.250;21.228;2022-11-25T02:38:22;63.25;;;21.15;;
36253;SDS011;22291;52.250;21.228;2022-11-25T02:41:12;61.95;;;18.55;;
36253;SDS011;22291;52.250;21.228;2022-11-25T02:43:44;60.88;;;18.20;;
36253;SDS011;22291;52.250;21.228;2022-11-25T02:46:14;47.13;;;13.15;;
36253;SDS011;22291;52.250;21.228;2022-11-25T02:48:43;63.48;;;19.00;;
36253;SDS011;22291;52.250;21.228;2022-11-25T02:51:14;69.30;;;19.27;;
36253;SDS011;22291;52.250;21.228;2022-11-25T02:53:43;62.55;;;19.37;;
36253;SDS011;22291;52.250;21.228;2022-11-25T02:56:12;59.10;;;18.10;;
36253;SDS011;22291;52.250;21.228;2022-11-25T03:01:09;59.13;;;16.60;;
36253;SDS011;22291;52.250;21.228;2022-11-25T03:03:39;60.35;;;19.23;;
36253;SDS011;22291;52.250;21.228;2022-11-25T03:06:06;57.33;;;17.65;;
36253;SDS011;22291;52.250;21.228;2022-11-25T03:08:33;55.38;;;17.65;;
36253;SDS011;22291;52.250;21.228;2022-11-25T03:11:03;64.55;;;18.52;;
36253;SDS011;22291;52.250;21.228;2022-11-25T03:13:31;75.40;;;20.33;;
36253;SDS011;22291;52.250;21.228;2022-11-25T03:15:59;71.62;;;20.15;;
36253;SDS011;22291;52.250;21.228;2022-11-25T03:18:25;61.80;;;20.50;;
36253;SDS011;22291;52.250;21.228;2022-11-25T03:20:53;71.15;;;21.95;;
36253;SDS011;22291;52.250;21.228;2022-11-25T03:23:21;70.70;;;21.90;;
36253;SDS011;22291;52.250;21.228;2022-11-25T03:25:50;70.50;;;21.87;;
36253;SDS011;22291;52.250;21.228;2022-11-25T03:28:18;80.03;;;23.38;;
36253;SDS011;22291;52.250;21.228;2022-11-25T03:30:44;66.87;;;19.50;;
36253;SDS011;22291;52.250;21.228;2022-11-25T03:33:12;73.67;;;21.17;;
36253;SDS011;22291;52.250;21.228;2022-11-25T03:35:38;65.83;;;19.62;;
36253;SDS011;22291;52.250;21.228;2022-11-25T03:38:05;65.35;;;19.55;;
36253;SDS011;22291;52.250;21.228;2022-11-25T03:40:31;75.72;;;20.82;;
36253;SDS011;22291;52.250;21.228;2022-11-25T03:42:59;71.35;;;21.00;;
36253;SDS011;22291;52.250;21.228;2022-11-25T03:45:25;68.25;;;21.87;;
36253;SDS011;22291;52.250;21.228;2022-11-25T03:47:52;70.03;;;22.62;;
36253;SDS011;22291;52.250;21.228;2022-11-25T03:50:18;69.37;;;20.92;;
36253;SDS011;22291;52.250;21.228;2022-11-25T03:52:44;75.12;;;21.33;;
36253;SDS011;22291;52.250;21.228;2022-11-25T03:55:10;85.10;;;21.35;;
36253;SDS011;22291;52.250;21.228;2022-11-25T03:57:39;64.62;;;18.35;;
36253;SDS011;22291;52.250;21.228;2022-11-25T04:00:09;65.72;;;21.95;;
36253;SDS011;22291;52.250;21.228;2022-11-25T04:02:37;62.43;;;20.35;;
36253;SDS011;22291;52.250;21.228;2022-11-25T04:05:06;72.27;;;21.33;;
36253;SDS011;22291;52.250;21.228;2022-11-25T04:07:34;78.00;;;21.05;;
36253;SDS011;22291;52.250;21.228;2022-11-25T04:10:00;63.10;;;19.52;;
36253;SDS011;22291;52.250;21.228;2022-11-25T04:12:27;66.07;;;19.37;;
36253;SDS011;22291;52.250;21.228;2022-11-25T04:14:58;77.82;;;20.65;;
36253;SDS011;22291;52.250;21.228;2022-11-25T04:17:24;82.45;;;23.38;;
36253;SDS011;22291;52.250;21.228;2022-11-25T04:19:53;78.28;;;20.97;;
36253;SDS011;22291;52.250;21.228;2022-11-25T04:22:19;56.95;;;15.13;;
36253;SDS011;22291;52.250;21.228;2022-11-25T04:24:45;77.03;;;19.63;;
36253;SDS011;22291;52.250;21.228;2022-11-25T04:27:11;78.25;;;19.05;;
36253;SDS011;22291;52.250;21.228;2022-11-25T04:29:38;83.22;;;21.48;;
36253;SDS011;22291;52.250;21.228;2022-11-25T04:32:04;79.50;;;19.25;;
36253;SDS011;22291;52.250;21.228;2022-11-25T04:34:30;77.22;;;21.65;;
36253;SDS011;22291;52.250;21.228;2022-11-25T04:36:56;83.72;;;20.32;;
36253;SDS011;22291;52.250;21.228;2022-11-25T04:39:22;79.32;;;21.15;;
36253;SDS011;22291;52.250;21.228;2022-11-25T04:41:49;75.35;;;20.80;;
36253;SDS011;22291;52.250;21.228;2022-11-25T04:44:17;78.65;;;21.57;;
36253;SDS011;22291;52.250;21.228;2022-11-25T04:46:43;83.70;;;23.07;;
36253;SDS011;22291;52.250;21.228;2022-11-25T04:49:11;72.00;;;20.17;;
36253;SDS011;22291;52.250;21.228;2022-11-25T04:51:37;80.38;;;21.33;;
36253;SDS011;22291;52.250;21.228;2022-11-25T04:54:06;82.37;;;21.52;;
36253;SDS011;22291;52.250;21.228;2022-11-25T04:56:32;76.30;;;21.65;;
36253;SDS011;22291;52.250;21.228;2022-11-25T04:58:58;70.92;;;20.62;;
36253;SDS011;22291;52.250;21.228;2022-11-25T05:01:43;77.75;;;19.80;;
36253;SDS011;22291;52.250;21.228;2022-11-25T05:04:11;64.00;;;19.12;;
36253;SDS011;22291;52.250;21.228;2022-11-25T05:06:37;81.32;;;20.77;;
36253;SDS011;22291;52.250;21.228;2022-11-25T05:09:03;73.15;;;21.77;;
36253;SDS011;22291;52.250;21.228;2022-11-25T05:11:31;92.17;;;19.55;;
36253;SDS011;22291;52.250;21.228;2022-11-25T05:13:57;87.60;;;21.80;;
36253;SDS011;22291;52.250;21.228;2022-11-25T05:16:24;74.58;;;19.77;;
36253;SDS011;22291;52.250;21.228;2022-11-25T05:18:53;75.83;;;19.55;;
36253;SDS011;22291;52.250;21.228;2022-11-25T05:21:21;77.60;;;19.05;;
36253;SDS011;22291;52.250;21.228;2022-11-25T05:23:49;71.33;;;20.25;;
36253;SDS011;22291;52.250;21.228;2022-11-25T05:26:16;78.65;;;20.30;;
36253;SDS011;22291;52.250;21.228;2022-11-25T05:28:42;75.32;;;21.33;;
36253;SDS011;22291;52.250;21.228;2022-11-25T05:31:08;84.32;;;21.12;;
36253;SDS011;22291;52.250;21.228;2022-11-25T05:33:34;70.57;;;19.87;;
36253;SDS011;22291;52.250;21.228;2022-11-25T05:36:00;86.70;;;21.50;;
36253;SDS011;22291;52.250;21.228;2022-11-25T05:38:30;86.70;;;21.93;;
36253;SDS011;22291;52.250;21.228;2022-11-25T05:41:00;89.10;;;20.72;;
36253;SDS011;22291;52.250;21.228;2022-11-25T05:43:29;93.45;;;21.33;;
36253;SDS011;22291;52.250;21.228;2022-11-25T05:45:55;77.90;;;20.40;;
36253;SDS011;22291;52.250;21.228;2022-11-25T05:48:23;86.00;;;21.95;;
36253;SDS011;22291;52.250;21.228;2022-11-25T05:50:49;80.47;;;19.95;;
36253;SDS011;22291;52.250;21.228;2022-11-25T05:53:16;82.42;;;19.05;;
36253;SDS011;22291;52.250;21.228;2022-11-25T05:55:42;79.92;;;21.12;;
36253;SDS011;22291;52.250;21.228;2022-11-25T05:58:14;96.35;;;21.62;;
36253;SDS011;22291;52.250;21.228;2022-11-25T06:00:41;87.08;;;23.07;;
36253;SDS011;22291;52.250;21.228;2022-11-25T06:03:08;87.33;;;20.52;;
36253;SDS011;22291;52.250;21.228;2022-11-25T06:05:34;78.83;;;21.42;;
36253;SDS011;22291;52.250;21.228;2022-11-25T06:08:00;83.87;;;20.45;;
36253;SDS011;22291;52.250;21.228;2022-11-25T06:10:27;98.17;;;22.45;;
36253;SDS011;22291;52.250;21.228;2022-11-25T06:12:54;79.25;;;20.17;;
36253;SDS011;22291;52.250;21.228;2022-11-25T06:15:20;86.17;;;20.92;;
36253;SDS011;22291;52.250;21.228;2022-11-25T06:17:46;87.40;;;21.23;;
36253;SDS011;22291;52.250;21.228;2022-11-25T06:20:12;89.42;;;20.92;;
36253;SDS011;22291;52.250;21.228;2022-11-25T06:22:40;86.75;;;23.00;;
36253;SDS011;22291;52.250;21.228;2022-11-25T06:25:09;94.10;;;20.72;;
36253;SDS011;22291;52.250;21.228;2022-11-25T06:27:35;82.90;;;20.05;;
36253;SDS011;22291;52.250;21.228;2022-11-25T06:30:04;81.30;;;21.33;;
36253;SDS011;22291;52.250;21.228;2022-11-25T06:32:32;83.58;;;21.62;;
36253;SDS011;22291;52.250;21.228;2022-11-25T06:34:58;99.13;;;24.90;;
36253;SDS011;22291;52.250;21.228;2022-11-25T06:37:26;94.17;;;22.50;;
36253;SDS011;22291;52.250;21.228;2022-11-25T06:39:53;91.87;;;23.47;;
36253;SDS011;22291;52.250;21.228;2022-11-25T06:42:19;82.00;;;22.10;;
36253;SDS011;22291;52.250;21.228;2022-11-25T06:44:45;102.92;;;25.82;;
36253;SDS011;22291;52.250;21.228;2022-11-25T06:47:13;82.45;;;24.77;;
36253;SDS011;22291;52.250;21.228;2022-11-25T06:49:40;108.37;;;26.35;;
36253;SDS011;22291;52.250;21.228;2022-11-25T06:52:06;96.90;;;22.85;;
36253;SDS011;22291;52.250;21.228;2022-11-25T06:54:32;89.42;;;23.30;;
36253;SDS011;22291;52.250;21.228;2022-11-25T06:56:59;95.15;;;23.83;;
36253;SDS011;22291;52.250;21.228;2022-11-25T06:59:25;97.50;;;23.42;;
36253;SDS011;22291;52.250;21.228;2022-11-25T07:01:51;99.72;;;26.50;;
36253;SDS011;22291;52.250;21.228;2022-11-25T07:04:17;115.05;;;25.05;;
36253;SDS011;22291;52.250;21.228;2022-11-25T07:06:43;99.85;;;25.25;;
36253;SDS011;22291;52.250;21.228;2022-11-25T07:09:09;98.45;;;25.88;;
36253;SDS011;22291;52.250;21.228;2022-11-25T07:11:37;95.45;;;25.02;;
36253;SDS011;22291;52.250;21.228;2022-11-25T07:14:08;95.35;;;26.02;;
36253;SDS011;22291;52.250;21.228;2022-11-25T07:16:38;97.67;;;24.65;;
36253;SDS011;22291;52.250;21.228;2022-11-25T07:19:06;105.87;;;26.25;;
36253;SDS011;22291;52.250;21.228;2022-11-25T07:21:36;109.30;;;28.42;;
36253;SDS011;22291;52.250;21.228;2022-11-25T07:24:07;101.12;;;25.88;;
36253;SDS011;22291;52.250;21.228;2022-11-25T07:26:36;120.87;;;29.98;;
36253;SDS011;22291;52.250;21.228;2022-11-25T07:29:08;113.28;;;28.15;;
36253;SDS011;22291;52.250;21.228;2022-11-25T07:31:39;103.25;;;27.20;;
36253;SDS011;22291;52.250;21.228;2022-11-25T07:34:14;108.70;;;26.97;;
36253;SDS011;22291;52.250;21.228;2022-11-25T07:36:44;103.05;;;27.52;;
36253;SDS011;22291;52.250;21.228;2022-11-25T07:39:14;116.55;;;27.98;;
36253;SDS011;22291;52.250;21.228;2022-11-25T07:41:48;109.37;;;27.62;;
36253;SDS011;22291;52.250;21.228;2022-11-25T07:44:17;112.40;;;28.15;;
36253;SDS011;22291;52.250;21.228;2022-11-25T07:46:45;107.87;;;28.47;;
36253;SDS011;22291;52.250;21.228;2022-11-25T07:49:15;102.60;;;26.85;;
36253;SDS011;22291;52.250;21.228;2022-11-25T07:51:49;105.00;;;26.50;;
36253;SDS011;22291;52.250;21.228;2022-11-25T07:54:20;111.47;;;29.15;;
36253;SDS011;22291;52.250;21.228;2022-11-25T07:56:47;107.10;;;26.68;;
36253;SDS011;22291;52.250;21.228;2022-11-25T07:59:18;74.10;;;19.75;;
36253;SDS011;22291;52.250;21.228;2022-11-25T08:01:48;102.35;;;27.75;;
36253;SDS011;22291;52.250;21.228;2022-11-25T08:04:19;96.85;;;27.52;;
36253;SDS011;22291;52.250;21.228;2022-11-25T08:06:49;103.25;;;28.77;;
36253;SDS011;22291;52.250;21.228;2022-11-25T08:09:20;121.40;;;28.98;;
36253;SDS011;22291;52.250;21.228;2022-11-25T08:11:49;109.17;;;28.85;;
36253;SDS011;22291;52.250;21.228;2022-11-25T08:14:18;99.83;;;28.12;;
36253;SDS011;22291;52.250;21.228;2022-11-25T08:16:46;105.95;;;27.82;;
36253;SDS011;22291;52.250;21.228;2022-11-25T08:19:15;110.15;;;28.10;;
36253;SDS011;22291;52.250;21.228;2022-11-25T08:21:42;94.92;;;25.62;;
36253;SDS011;22291;52.250;21.228;2022-11-25T08:24:16;100.00;;;26.97;;
36253;SDS011;22291;52.250;21.228;2022-11-25T08:26:45;101.50;;;28.92;;
36253;SDS011;22291;52.250;21.228;2022-11-25T08:29:16;106.72;;;26.50;;
36253;SDS011;22291;52.250;21.228;2022-11-25T08:34:17;77.95;;;24.05;;
36253;SDS011;22291;52.250;21.228;2022-11-25T08:36:47;84.15;;;25.48;;
36253;SDS011;22291;52.250;21.228;2022-11-25T08:39:13;96.28;;;26.65;;
36253;SDS011;22291;52.250;21.228;2022-11-25T08:44:09;78.73;;;22.97;;
36253;SDS011;22291;52.250;21.228;2022-11-25T08:46:38;75.50;;;22.93;;
36253;SDS011;22291;52.250;21.228;2022-11-25T08:49:07;78.95;;;22.52;;
36253;SDS011;22291;52.250;21.228;2022-11-25T08:51:34;72.72;;;23.85;;
36253;SDS011;22291;52.250;21.228;2022-11-25T08:54:05;84.50;;;25.90;;
36253;SDS011;22291;52.250;21.228;2022-11-25T08:56:33;66.82;;;22.65;;
36253;SDS011;22291;52.250;21.228;2022-11-25T08:59:02;78.12;;;23.20;;
36253;SDS011;22291;52.250;21.228;2022-11-25T09:01:30;64.30;;;20.60;;
36253;SDS011;22291;52.250;21.228;2022-11-25T09:03:58;52.90;;;20.02;;
36253;SDS011;22291;52.250;21.228;2022-11-25T09:06:26;59.25;;;20.37;;
36253;SDS011;22291;52.250;21.228;2022-11-25T09:08:55;62.62;;;21.12;;
36253;SDS011;22291;52.250;21.228;2022-11-25T09:11:24;60.95;;;20.23;;
36253;SDS011;22291;52.250;21.228;2022-11-25T09:13:54;68.83;;;22.35;;
36253;SDS011;22291;52.250;21.228;2022-11-25T09:16:20;69.37;;;21.60;;
36253;SDS011;22291;52.250;21.228;2022-11-25T09:18:48;63.87;;;20.40;;
36253;SDS011;22291;52.250;21.228;2022-11-25T09:21:15;67.35;;;22.70;;
36253;SDS011;22291;52.250;21.228;2022-11-25T09:23:43;69.27;;;22.02;;
36253;SDS011;22291;52.250;21.228;2022-11-25T09:26:16;62.95;;;21.37;;
36253;SDS011;22291;52.250;21.228;2022-11-25T09:28:42;81.12;;;22.58;;
36253;SDS011;22291;52.250;21.228;2022-11-25T09:31:08;80.05;;;23.32;;
36253;SDS011;22291;52.250;21.228;2022-11-25T09:33:36;74.35;;;23.62;;
36253;SDS011;22291;52.250;21.228;2022-11-25T09:36:03;77.17;;;23.67;;
36253;SDS011;22291;52.250;21.228;2022-11-25T09:38:32;74.70;;;24.40;;
36253;SDS011;22291;52.250;21.228;2022-11-25T09:41:09;71.65;;;22.90;;
36253;SDS011;22291;52.250;21.228;2022-11-25T09:44:29;66.20;;;21.35;;
36253;SDS011;22291;52.250;21.228;2022-11-25T09:50:07;70.57;;;21.55;;
36253;SDS011;22291;52.250;21.228;2022-11-25T09:55:49;71.42;;;21.57;;
36253;SDS011;22291;52.250;21.228;2022-11-25T09:58:28;81.65;;;23.10;;
36253;SDS011;22291;52.250;21.228;2022-11-25T10:00:52;78.20;;;23.90;;
36253;SDS011;22291;52.250;21.228;2022-11-25T10:03:36;72.90;;;21.75;;
36253;SDS011;22291;52.250;21.228;2022-11-25T10:06:15;74.25;;;21.93;;
36253;SDS011;22291;52.250;21.228;2022-11-25T10:08:49;76.85;;;21.95;;
36253;SDS011;22291;52.250;21.228;2022-11-25T10:11:27;78.92;;;22.58;;
36253;SDS011;22291;52.250;21.228;2022-11-25T10:14:02;74.67;;;23.00;;
36253;SDS011;22291;52.250;21.228;2022-11-25T10:19:49;68.60;;;19.30;;
36253;SDS011;22291;52.250;21.228;2022-11-25T10:22:26;68.57;;;21.27;;
36253;SDS011;22291;52.250;21.228;2022-11-25T10:25:01;75.92;;;22.65;;
36253;SDS011;22291;52.250;21.228;2022-11-25T10:27:56;66.77;;;21.73;;
36253;SDS011;22291;52.250;21.228;2022-11-25T10:30:34;68.00;;;23.22;;
36253;SDS011;22291;52.250;21.228;2022-11-25T10:33:32;68.07;;;20.72;;
36253;SDS011;22291;52.250;21.228;2022-11-25T10:39:16;68.37;;;23.40;;
36253;SDS011;22291;52.250;21.228;2022-11-25T10:44:28;80.75;;;25.20;;
36253;SDS011;22291;52.250;21.228;2022-11-25T10:52:50;76.77;;;22.67;;
36253;SDS011;22291;52.250;21.228;2022-11-25T10:55:23;74.65;;;23.38;;
36253;SDS011;22291;52.250;21.228;2022-11-25T10:57:57;78.92;;;21.55;;
36253;SDS011;22291;52.250;21.228;2022-11-25T11:00:29;70.50;;;22.37;;
36253;SDS011;22291;52.250;21.228;2022-11-25T11:03:00;74.67;;;23.27;;
36253;SDS011;22291;52.250;21.228;2022-11-25T11:05:47;76.65;;;23.77;;
36253;SDS011;22291;52.250;21.228;2022-11-25T11:08:19;65.10;;;22.22;;
36253;SDS011;22291;52.250;21.228;2022-11-25T11:11:08;65.25;;;22.07;;
36253;SDS011;22291;52.250;21.228;2022-11-25T11:13:43;80.38;;;24.02;;
36253;SDS011;22291;52.250;21.228;2022-11-25T11:16:25;75.62;;;24.02;;
36253;SDS011;22291;52.250;21.228;2022-11-25T11:18:56;75.70;;;23.85;;
36253;SDS011;22291;52.250;21.228;2022-11-25T11:21:24;76.00;;;23.70;;
36253;SDS011;22291;52.250;21.228;2022-11-25T11:23:57;87.05;;;26.55;;
36253;SDS011;22291;52.250;21.228;2022-11-25T11:26:27;77.12;;;23.85;;
36253;SDS011;22291;52.250;21.228;2022-11-25T11:29:13;86.57;;;24.57;;
36253;SDS011;22291;52.250;21.228;2022-11-25T11:31:44;78.72;;;24.40;;
36253;SDS011;22291;52.250;21.228;2022-11-25T11:39:54;74.70;;;21.85;;
36253;SDS011;22291;52.250;21.228;2022-11-25T11:53:20;77.55;;;26.33;;
36253;SDS011;22291;52.250;21.228;2022-11-25T11:56:08;92.20;;;26.62;;
36253;SDS011;22291;52.250;21.228;2022-11-25T12:10:26;78.90;;;24.15;;
36253;SDS011;22291;52.250;21.228;2022-11-25T12:16:09;78.23;;;24.07;;
36253;SDS011;22291;52.250;21.228;2022-11-25T12:24:26;78.28;;;24.40;;
36253;SDS011;22291;52.250;21.228;2022-11-25T12:27:16;72.82;;;23.05;;
36253;SDS011;22291;52.250;21.228;2022-11-25T12:35:50;86.47;;;27.20;;
36253;SDS011;22291;52.250;21.228;2022-11-25T12:38:31;91.50;;;26.60;;
36253;SDS011;22291;52.250;21.228;2022-11-25T12:41:27;84.13;;;27.05;;
36253;SDS011;22291;52.250;21.228;2022-11-25T12:44:26;88.47;;;28.12;;
36253;SDS011;22291;52.250;21.228;2022-11-25T12:47:29;82.85;;;26.37;;
36253;SDS011;22291;52.250;21.228;2022-11-25T12:49:55;92.72;;;27.98;;
36253;SDS011;22291;52.250;21.228;2022-11-25T12:55:35;87.70;;;28.80;;
36253;SDS011;22291;52.250;21.228;2022-11-25T12:58:23;85.00;;;28.85;;
36253;SDS011;22291;52.250;21.228;2022-11-25T13:07:26;94.28;;;30.60;;
36253;SDS011;22291;52.250;21.228;2022-11-25T13:16:08;81.55;;;28.57;;
36253;SDS011;22291;52.250;21.228;2022-11-25T13:18:37;93.85;;;30.35;;
36253;SDS011;22291;52.250;21.228;2022-11-25T13:21:07;91.63;;;31.48;;
36253;SDS011;22291;52.250;21.228;2022-11-25T13:23:42;100.07;;;31.57;;
36253;SDS011;22291;52.250;21.228;2022-11-25T13:29:50;81.55;;;29.00;;
36253;SDS011;22291;52.250;21.228;2022-11-25T13:31:59;101.95;;;30.52;;
36253;SDS011;22291;52.250;21.228;2022-11-25T13:34:49;90.38;;;30.27;;
36253;SDS011;22291;52.250;21.228;2022-11-25T13:37:37;101.27;;;31.70;;
36253;SDS011;22291;52.250;21.228;2022-11-25T13:42:55;78.30;;;28.60;;
36253;SDS011;22291;52.250;21.228;2022-11-25T13:45:34;96.22;;;29.05;;
36253;SDS011;22291;52.250;21.228;2022-11-25T13:48:12;92.60;;;30.43;;
36253;SDS011;22291;52.250;21.228;2022-11-25T13:50:42;113.60;;;32.95;;
36253;SDS011;22291;52.250;21.228;2022-11-25T13:53:20;101.67;;;33.30;;
36253;SDS011;22291;52.250;21.228;2022-11-25T14:04:18;89.58;;;30.92;;
36253;SDS011;22291;52.250;21.228;2022-11-25T14:10:12;103.22;;;32.60;;
36253;SDS011;22291;52.250;21.228;2022-11-25T14:21:02;94.50;;;32.17;;
36253;SDS011;22291;52.250;21.228;2022-11-25T14:26:31;102.60;;;34.03;;
36253;SDS011;22291;52.250;21.228;2022-11-25T14:29:03;106.22;;;33.45;;
36253;SDS011;22291;52.250;21.228;2022-11-25T14:31:50;100.30;;;33.48;;
36253;SDS011;22291;52.250;21.228;2022-11-25T14:34:26;97.72;;;33.78;;
36253;SDS011;22291;52.250;21.228;2022-11-25T14:37:04;100.60;;;34.00;;
36253;SDS011;22291;52.250;21.228;2022-11-25T14:40:00;104.40;;;33.13;;
36253;SDS011;22291;52.250;21.228;2022-11-25T14:42:46;95.97;;;31.10;;
36253;SDS011;22291;52.250;21.228;2022-11-25T14:45:26;94.65;;;31.35;;
36253;SDS011;22291;52.250;21.228;2022-11-25T14:50:57;88.45;;;30.17;;
36253;SDS011;22291;52.250;21.228;2022-11-25T14:53:23;94.92;;;31.55;;
36253;SDS011;22291;52.250;21.228;2022-11-25T14:55:53;90.28;;;32.03;;
36253;SDS011;22291;52.250;21.228;2022-11-25T14:58:25;100.92;;;34.48;;
36253;SDS011;22291;52.250;21.228;2022-11-25T15:03:35;90.20;;;32.25;;
36253;SDS011;22291;52.250;21.228;2022-11-25T15:06:05;91.47;;;31.48;;
36253;SDS011;22291;52.250;21.228;2022-11-25T15:08:42;97.47;;;33.30;;
36253;SDS011;22291;52.250;21.228;2022-11-25T15:11:11;84.00;;;31.82;;
36253;SDS011;22291;52.250;21.228;2022-11-25T15:13:47;95.00;;;33.20;;
36253;SDS011;22291;52.250;21.228;2022-11-25T15:16:22;85.87;;;31.97;;
36253;SDS011;22291;52.250;21.228;2022-11-25T15:19:05;83.82;;;29.48;;
36253;SDS011;22291;52.250;21.228;2022-11-25T15:21:46;94.83;;;34.40;;
36253;SDS011;22291;52.250;21.228;2022-11-25T15:24:23;92.35;;;33.73;;
36253;SDS011;22291;52.250;21.228;2022-11-25T15:27:28;85.05;;;32.20;;
36253;SDS011;22291;52.250;21.228;2022-11-25T15:29:51;102.02;;;36.98;;
36253;SDS011;22291;52.250;21.228;2022-11-25T15:32:21;91.55;;;35.65;;
36253;SDS011;22291;52.250;21.228;2022-11-25T15:34:53;122.90;;;46.05;;
36253;SDS011;22291;52.250;21.228;2022-11-25T15:37:24;84.80;;;32.45;;
36253;SDS011;22291;52.250;21.228;2022-11-25T15:43:06;101.33;;;35.33;;
36253;SDS011;22291;52.250;21.228;2022-11-25T15:45:41;85.47;;;31.90;;
36253;SDS011;22291;52.250;21.228;2022-11-25T15:48:16;95.65;;;38.02;;
36253;SDS011;22291;52.250;21.228;2022-11-25T15:50:47;93.47;;;36.13;;
36253;SDS011;22291;52.250;21.228;2022-11-25T15:53:19;93.70;;;34.25;;
36253;SDS011;22291;52.250;21.228;2022-11-25T15:55:51;90.85;;;32.78;;
36253;SDS011;22291;52.250;21.228;2022-11-25T15:58:19;88.15;;;35.00;;
36253;SDS011;22291;52.250;21.228;2022-11-25T16:01:02;91.75;;;31.85;;
36253;SDS011;22291;52.250;21.228;2022-11-25T16:03:31;99.60;;;32.85;;
36253;SDS011;22291;52.250;21.228;2022-11-25T16:06:00;86.47;;;32.75;;
36253;SDS011;22291;52.250;21.228;2022-11-25T16:11:11;82.80;;;28.07;;
36253;SDS011;22291;52.250;21.228;2022-11-25T16:13:43;80.90;;;30.15;;
36253;SDS011;22291;52.250;21.228;2022-11-25T16:16:16;80.45;;;28.47;;
36253;SDS011;22291;52.250;21.228;2022-11-25T16:21:43;96.12;;;29.55;;
36253;SDS011;22291;52.250;21.228;2022-11-25T16:27:06;87.60;;;31.97;;
36253;SDS011;22291;52.250;21.228;2022-11-25T16:32:25;85.28;;;28.80;;
36253;SDS011;22291;52.250;21.228;2022-11-25T16:34:55;86.67;;;30.57;;
36253;SDS011;22291;52.250;21.228;2022-11-25T16:37:27;94.92;;;34.58;;
36253;SDS011;22291;52.250;21.228;2022-11-25T16:39:53;97.53;;;33.85;;
36253;SDS011;22291;52.250;21.228;2022-11-25T16:42:20;96.53;;;36.85;;
36253;SDS011;22291;52.250;21.228;2022-11-25T16:44:48;92.57;;;35.75;;
36253;SDS011;22291;52.250;21.228;2022-11-25T16:47:17;95.97;;;35.00;;
36253;SDS011;22291;52.250;21.228;2022-11-25T16:49:47;89.83;;;32.73;;
36253;SDS011;22291;52.250;21.228;2022-11-25T16:52:15;97.02;;;35.48;;
36253;SDS011;22291;52.250;21.228;2022-11-25T16:54:41;93.27;;;35.85;;
36253;SDS011;22291;52.250;21.228;2022-11-25T16:57:17;98.90;;;36.53;;
36253;SDS011;22291;52.250;21.228;2022-11-25T16:59:47;92.10;;;35.17;;
36253;SDS011;22291;52.250;21.228;2022-11-25T17:02:17;95.75;;;33.65;;